sensor_id;sensor_type;location;lat;lon;timestamp;P1;durP1;ratioP1;P2;durP2;ratioP2
34571;SDS011;20808;48.974;8.452;2023-03-12T00:00:00;8.82;;;4.60;;
34571;SDS011;20808;48.974;8.452;2023-03-12T00:00:18;8.68;;;4.60;;
34571;SDS011;20808;48.974;8.452;2023-03-12T00:00:35;8.23;;;4.50;;
34571;SDS011;20808;48.974;8.452;2023-03-12T00:00:53;9.00;;;4.60;;
34571;SDS011;20808;48.974;8.452;2023-03-12T00:01:10;9.38;;;4.70;;
34571;SDS011;20808;48.974;8.452;2023-03-12T00:01:28;10.00;;;4.60;;
34571;SDS011;20808;48.974;8.452;2023-03-12T00:01:47;9.27;;;4.60;;
34571;SDS011;20808;48.974;8.452;2023-03-12T00:02:03;10.68;;;4.60;;
34571;SDS011;20808;48.974;8.452;2023-03-12T00:02:19;9.95;;;4.50;;
34571;SDS011;20808;48.974;8.452;2023-03-12T00:02:36;9.10;;;4.30;;
34571;SDS011;20808;48.974;8.452;2023-03-12T00:02:52;8.00;;;4.40;;
34571;SDS011;20808;48.974;8.452;2023-03-12T00:03:15;7.55;;;4.45;;
34571;SDS011;20808;48.974;8.452;2023-03-12T00:03:32;7.63;;;4.55;;
34571;SDS011;20808;48.974;8.452;2023-03-12T00:03:48;9.13;;;4.80;;
34571;SDS011;20808;48.974;8.452;2023-03-12T00:04:08;10.30;;;5.15;;
34571;SDS011;20808;48.974;8.452;2023-03-12T00:04:27;13.10;;;5.20;;
34571;SDS011;20808;48.974;8.452;2023-03-12T00:04:44;11.57;;;5.05;;
34571;SDS011;20808;48.974;8.452;2023-03-12T00:05:00;11.15;;;4.82;;
34571;SDS011;20808;48.974;8.452;2023-03-12T00:05:17;9.77;;;4.45;;
34571;SDS011;20808;48.974;8.452;2023-03-12T00:05:35;10.15;;;4.30;;
34571;SDS011;20808;48.974;8.452;2023-03-12T00:05:52;10.43;;;4.57;;
34571;SDS011;20808;48.974;8.452;2023-03-12T00:06:09;10.02;;;4.63;;
34571;SDS011;20808;48.974;8.452;2023-03-12T00:06:25;8.48;;;4.60;;
34571;SDS011;20808;48.974;8.452;2023-03-12T00:06:42;8.35;;;4.53;;
34571;SDS011;20808;48.974;8.452;2023-03-12T00:06:58;10.75;;;4.50;;
34571;SDS011;20808;48.974;8.452;2023-03-12T00:07:15;10.32;;;4.30;;
34571;SDS011;20808;48.974;8.452;2023-03-12T00:07:31;10.05;;;4.10;;
34571;SDS011;20808;48.974;8.452;2023-03-12T00:07:47;10.75;;;4.40;;
34571;SDS011;20808;48.974;8.452;2023-03-12T00:08:05;7.97;;;4.30;;
34571;SDS011;20808;48.974;8.452;2023-03-12T00:08:25;7.72;;;4.20;;
34571;SDS011;20808;48.974;8.452;2023-03-12T00:08:42;7.65;;;4.30;;
34571;SDS011;20808;48.974;8.452;2023-03-12T00:08:59;8.10;;;4.20;;
34571;SDS011;20808;48.974;8.452;2023-03-12T00:09:16;8.05;;;4.10;;
34571;SDS011;20808;48.974;8.452;2023-03-12T00:09:33;8.95;;;4.03;;
34571;SDS011;20808;48.974;8.452;2023-03-12T00:09:51;9.82;;;4.40;;
34571;SDS011;20808;48.974;8.452;2023-03-12T00:10:08;9.93;;;4.45;;
34571;SDS011;20808;48.974;8.452;2023-03-12T00:10:25;10.20;;;4.50;;
34571;SDS011;20808;48.974;8.452;2023-03-12T00:10:41;8.50;;;4.05;;
34571;SDS011;20808;48.974;8.452;2023-03-12T00:10:58;9.20;;;4.15;;
34571;SDS011;20808;48.974;8.452;2023-03-12T00:11:18;9.07;;;4.30;;
34571;SDS011;20808;48.974;8.452;2023-03-12T00:11:37;8.55;;;4.50;;
34571;SDS011;20808;48.974;8.452;2023-03-12T00:11:54;9.30;;;4.40;;
34571;SDS011;20808;48.974;8.452;2023-03-12T00:12:14;10.82;;;4.00;;
34571;SDS011;20808;48.974;8.452;2023-03-12T00:12:31;10.52;;;3.88;;
34571;SDS011;20808;48.974;8.452;2023-03-12T00:12:48;9.95;;;4.00;;
34571;SDS011;20808;48.974;8.452;2023-03-12T00:13:04;7.05;;;4.00;;
34571;SDS011;20808;48.974;8.452;2023-03-12T00:13:20;6.63;;;3.85;;
34571;SDS011;20808;48.974;8.452;2023-03-12T00:13:38;6.38;;;3.72;;
34571;SDS011;20808;48.974;8.452;2023-03-12T00:13:59;6.53;;;3.80;;
34571;SDS011;20808;48.974;8.452;2023-03-12T00:14:17;7.50;;;4.05;;
34571;SDS011;20808;48.974;8.452;2023-03-12T00:14:36;8.45;;;4.30;;
34571;SDS011;20808;48.974;8.452;2023-03-12T00:14:52;9.52;;;4.38;;
34571;SDS011;20808;48.974;8.452;2023-03-12T00:15:08;8.68;;;4.35;;
34571;SDS011;20808;48.974;8.452;2023-03-12T00:15:26;8.90;;;4.38;;
34571;SDS011;20808;48.974;8.452;2023-03-12T00:15:43;8.63;;;4.40;;
34571;SDS011;20808;48.974;8.452;2023-03-12T00:16:03;8.15;;;4.20;;
34571;SDS011;20808;48.974;8.452;2023-03-12T00:16:21;8.75;;;4.07;;
34571;SDS011;20808;48.974;8.452;2023-03-12T00:16:41;8.68;;;3.97;;
34571;SDS011;20808;48.974;8.452;2023-03-12T00:17:00;8.82;;;4.10;;
34571;SDS011;20808;48.974;8.452;2023-03-12T00:17:19;7.50;;;4.10;;
34571;SDS011;20808;48.974;8.452;2023-03-12T00:17:35;7.00;;;3.90;;
34571;SDS011;20808;48.974;8.452;2023-03-12T00:17:54;7.05;;;3.70;;
34571;SDS011;20808;48.974;8.452;2023-03-12T00:18:10;7.53;;;3.75;;
34571;SDS011;20808;48.974;8.452;2023-03-12T00:18:27;8.55;;;4.00;;
34571;SDS011;20808;48.974;8.452;2023-03-12T00:18:45;8.48;;;4.03;;
34571;SDS011;20808;48.974;8.452;2023-03-12T00:19:02;8.30;;;4.10;;
34571;SDS011;20808;48.974;8.452;2023-03-12T00:19:18;9.82;;;4.10;;
34571;SDS011;20808;48.974;8.452;2023-03-12T00:19:34;9.18;;;4.13;;
34571;SDS011;20808;48.974;8.452;2023-03-12T00:19:51;9.73;;;4.10;;
34571;SDS011;20808;48.974;8.452;2023-03-12T00:20:08;8.85;;;4.15;;
34571;SDS011;20808;48.974;8.452;2023-03-12T00:20:26;7.80;;;4.30;;
34571;SDS011;20808;48.974;8.452;2023-03-12T00:20:42;7.22;;;4.00;;
34571;SDS011;20808;48.974;8.452;2023-03-12T00:21:07;8.30;;;4.00;;
34571;SDS011;20808;48.974;8.452;2023-03-12T00:21:25;8.13;;;3.80;;
34571;SDS011;20808;48.974;8.452;2023-03-12T00:21:41;7.85;;;3.75;;
34571;SDS011;20808;48.974;8.452;2023-03-12T00:21:56;7.00;;;3.70;;
34571;SDS011;20808;48.974;8.452;2023-03-12T00:22:13;6.85;;;3.55;;
34571;SDS011;20808;48.974;8.452;2023-03-12T00:22:30;6.00;;;3.40;;
34571;SDS011;20808;48.974;8.452;2023-03-12T00:22:50;6.00;;;3.42;;
34571;SDS011;20808;48.974;8.452;2023-03-12T00:23:06;8.40;;;3.83;;
34571;SDS011;20808;48.974;8.452;2023-03-12T00:23:22;9.20;;;4.03;;
34571;SDS011;20808;48.974;8.452;2023-03-12T00:23:39;11.80;;;4.10;;
34571;SDS011;20808;48.974;8.452;2023-03-12T00:23:55;10.98;;;4.07;;
34571;SDS011;20808;48.974;8.452;2023-03-12T00:24:11;9.37;;;3.90;;
34571;SDS011;20808;48.974;8.452;2023-03-12T00:24:27;9.93;;;3.90;;
34571;SDS011;20808;48.974;8.452;2023-03-12T00:24:43;8.20;;;3.97;;
34571;SDS011;20808;48.974;8.452;2023-03-12T00:24:59;9.50;;;4.05;;
34571;SDS011;20808;48.974;8.452;2023-03-12T00:25:15;10.27;;;3.83;;
34571;SDS011;20808;48.974;8.452;2023-03-12T00:25:31;8.68;;;3.85;;
34571;SDS011;20808;48.974;8.452;2023-03-12T00:25:47;9.80;;;4.00;;
34571;SDS011;20808;48.974;8.452;2023-03-12T00:26:04;8.70;;;3.90;;
34571;SDS011;20808;48.974;8.452;2023-03-12T00:26:21;7.25;;;3.78;;
34571;SDS011;20808;48.974;8.452;2023-03-12T00:26:37;7.43;;;3.70;;
34571;SDS011;20808;48.974;8.452;2023-03-12T00:26:54;7.07;;;3.80;;
34571;SDS011;20808;48.974;8.452;2023-03-12T00:27:10;7.93;;;3.88;;
34571;SDS011;20808;48.974;8.452;2023-03-12T00:27:26;8.25;;;3.92;;
34571;SDS011;20808;48.974;8.452;2023-03-12T00:27:42;8.48;;;4.07;;
34571;SDS011;20808;48.974;8.452;2023-03-12T00:27:58;9.18;;;4.10;;
34571;SDS011;20808;48.974;8.452;2023-03-12T00:28:14;7.78;;;3.83;;
34571;SDS011;20808;48.974;8.452;2023-03-12T00:28:30;8.00;;;3.80;;
34571;SDS011;20808;48.974;8.452;2023-03-12T00:28:47;7.55;;;3.60;;
34571;SDS011;20808;48.974;8.452;2023-03-12T00:29:03;6.65;;;3.40;;
34571;SDS011;20808;48.974;8.452;2023-03-12T00:29:19;7.35;;;3.75;;
34571;SDS011;20808;48.974;8.452;2023-03-12T00:29:35;7.70;;;3.85;;
34571;SDS011;20808;48.974;8.452;2023-03-12T00:29:51;8.15;;;4.03;;
34571;SDS011;20808;48.974;8.452;2023-03-12T00:30:08;9.35;;;4.15;;
34571;SDS011;20808;48.974;8.452;2023-03-12T00:30:26;8.95;;;4.00;;
34571;SDS011;20808;48.974;8.452;2023-03-12T00:30:43;8.60;;;3.85;;
34571;SDS011;20808;48.974;8.452;2023-03-12T00:30:59;7.03;;;3.80;;
34571;SDS011;20808;48.974;8.452;2023-03-12T00:31:17;7.18;;;3.72;;
34571;SDS011;20808;48.974;8.452;2023-03-12T00:31:34;9.75;;;4.20;;
34571;SDS011;20808;48.974;8.452;2023-03-12T00:31:51;9.80;;;4.10;;
34571;SDS011;20808;48.974;8.452;2023-03-12T00:32:07;9.95;;;4.07;;
34571;SDS011;20808;48.974;8.452;2023-03-12T00:32:24;9.52;;;3.90;;
34571;SDS011;20808;48.974;8.452;2023-03-12T00:32:40;9.07;;;3.90;;
34571;SDS011;20808;48.974;8.452;2023-03-12T00:32:56;8.90;;;4.07;;
34571;SDS011;20808;48.974;8.452;2023-03-12T00:33:13;8.75;;;4.20;;
34571;SDS011;20808;48.974;8.452;2023-03-12T00:33:29;8.48;;;4.25;;
34571;SDS011;20808;48.974;8.452;2023-03-12T00:33:45;7.75;;;4.40;;
34571;SDS011;20808;48.974;8.452;2023-03-12T00:34:04;7.45;;;4.30;;
34571;SDS011;20808;48.974;8.452;2023-03-12T00:34:20;7.70;;;4.20;;
34571;SDS011;20808;48.974;8.452;2023-03-12T00:34:36;8.82;;;3.90;;
34571;SDS011;20808;48.974;8.452;2023-03-12T00:34:53;8.45;;;3.92;;
34571;SDS011;20808;48.974;8.452;2023-03-12T00:35:10;8.95;;;4.00;;
34571;SDS011;20808;48.974;8.452;2023-03-12T00:35:26;8.68;;;4.20;;
34571;SDS011;20808;48.974;8.452;2023-03-12T00:35:42;7.85;;;4.53;;
34571;SDS011;20808;48.974;8.452;2023-03-12T00:35:59;7.10;;;4.47;;
34571;SDS011;20808;48.974;8.452;2023-03-12T00:36:15;7.68;;;4.60;;
34571;SDS011;20808;48.974;8.452;2023-03-12T00:36:33;7.30;;;4.38;;
34571;SDS011;20808;48.974;8.452;2023-03-12T00:36:50;8.73;;;4.32;;
34571;SDS011;20808;48.974;8.452;2023-03-12T00:37:06;9.88;;;4.50;;
34571;SDS011;20808;48.974;8.452;2023-03-12T00:37:23;11.23;;;4.70;;
34571;SDS011;20808;48.974;8.452;2023-03-12T00:37:39;11.02;;;4.60;;
34571;SDS011;20808;48.974;8.452;2023-03-12T00:37:55;9.80;;;4.50;;
34571;SDS011;20808;48.974;8.452;2023-03-12T00:38:12;9.07;;;4.40;;
34571;SDS011;20808;48.974;8.452;2023-03-12T00:38:28;8.57;;;4.50;;
34571;SDS011;20808;48.974;8.452;2023-03-12T00:38:45;9.02;;;4.55;;
34571;SDS011;20808;48.974;8.452;2023-03-12T00:39:01;9.40;;;4.38;;
34571;SDS011;20808;48.974;8.452;2023-03-12T00:39:19;8.82;;;4.07;;
34571;SDS011;20808;48.974;8.452;2023-03-12T00:39:35;7.43;;;3.90;;
34571;SDS011;20808;48.974;8.452;2023-03-12T00:39:51;8.10;;;4.00;;
34571;SDS011;20808;48.974;8.452;2023-03-12T00:40:08;9.15;;;3.95;;
34571;SDS011;20808;48.974;8.452;2023-03-12T00:40:25;9.18;;;4.30;;
34571;SDS011;20808;48.974;8.452;2023-03-12T00:40:41;9.65;;;4.45;;
34571;SDS011;20808;48.974;8.452;2023-03-12T00:40:59;8.35;;;4.80;;
34571;SDS011;20808;48.974;8.452;2023-03-12T00:41:15;8.50;;;4.53;;
34571;SDS011;20808;48.974;8.452;2023-03-12T00:41:33;9.13;;;4.32;;
34571;SDS011;20808;48.974;8.452;2023-03-12T00:41:50;9.20;;;4.30;;
34571;SDS011;20808;48.974;8.452;2023-03-12T00:42:06;8.00;;;4.20;;
34571;SDS011;20808;48.974;8.452;2023-03-12T00:42:23;6.90;;;4.30;;
34571;SDS011;20808;48.974;8.452;2023-03-12T00:42:39;6.30;;;4.20;;
34571;SDS011;20808;48.974;8.452;2023-03-12T00:42:55;7.07;;;4.30;;
34571;SDS011;20808;48.974;8.452;2023-03-12T00:43:14;7.55;;;4.32;;
34571;SDS011;20808;48.974;8.452;2023-03-12T00:43:30;7.95;;;4.50;;
34571;SDS011;20808;48.974;8.452;2023-03-12T00:43:48;8.57;;;4.50;;
34571;SDS011;20808;48.974;8.452;2023-03-12T00:44:05;7.63;;;4.32;;
34571;SDS011;20808;48.974;8.452;2023-03-12T00:44:21;8.25;;;4.40;;
34571;SDS011;20808;48.974;8.452;2023-03-12T00:44:37;8.17;;;4.50;;
34571;SDS011;20808;48.974;8.452;2023-03-12T00:44:53;8.00;;;4.50;;
34571;SDS011;20808;48.974;8.452;2023-03-12T00:45:10;7.55;;;4.35;;
34571;SDS011;20808;48.974;8.452;2023-03-12T00:45:26;7.18;;;4.25;;
34571;SDS011;20808;48.974;8.452;2023-03-12T00:45:42;7.25;;;4.10;;
34571;SDS011;20808;48.974;8.452;2023-03-12T00:45:59;7.60;;;4.35;;
34571;SDS011;20808;48.974;8.452;2023-03-12T00:46:15;8.02;;;4.40;;
34571;SDS011;20808;48.974;8.452;2023-03-12T00:46:31;7.90;;;4.40;;
34571;SDS011;20808;48.974;8.452;2023-03-12T00:46:48;9.00;;;4.47;;
34571;SDS011;20808;48.974;8.452;2023-03-12T00:47:04;10.27;;;4.55;;
34571;SDS011;20808;48.974;8.452;2023-03-12T00:47:20;10.60;;;4.50;;
34571;SDS011;20808;48.974;8.452;2023-03-12T00:47:37;12.00;;;4.53;;
34571;SDS011;20808;48.974;8.452;2023-03-12T00:47:52;12.10;;;4.53;;
34571;SDS011;20808;48.974;8.452;2023-03-12T00:48:08;11.30;;;4.50;;
34571;SDS011;20808;48.974;8.452;2023-03-12T00:48:25;11.32;;;4.38;;
34571;SDS011;20808;48.974;8.452;2023-03-12T00:48:41;9.25;;;4.40;;
34571;SDS011;20808;48.974;8.452;2023-03-12T00:48:58;9.23;;;4.30;;
34571;SDS011;20808;48.974;8.452;2023-03-12T00:49:14;8.43;;;4.30;;
34571;SDS011;20808;48.974;8.452;2023-03-12T00:49:30;8.10;;;4.30;;
34571;SDS011;20808;48.974;8.452;2023-03-12T00:49:46;9.07;;;4.35;;
34571;SDS011;20808;48.974;8.452;2023-03-12T00:50:03;9.15;;;4.40;;
34571;SDS011;20808;48.974;8.452;2023-03-12T00:50:19;9.32;;;4.43;;
34571;SDS011;20808;48.974;8.452;2023-03-12T00:50:35;9.63;;;4.20;;
34571;SDS011;20808;48.974;8.452;2023-03-12T00:50:51;9.32;;;4.22;;
34571;SDS011;20808;48.974;8.452;2023-03-12T00:51:07;8.75;;;4.10;;
34571;SDS011;20808;48.974;8.452;2023-03-12T00:51:24;8.57;;;4.00;;
34571;SDS011;20808;48.974;8.452;2023-03-12T00:51:40;8.75;;;4.00;;
34571;SDS011;20808;48.974;8.452;2023-03-12T00:51:56;8.60;;;3.90;;
34571;SDS011;20808;48.974;8.452;2023-03-12T00:52:12;9.10;;;4.10;;
34571;SDS011;20808;48.974;8.452;2023-03-12T00:52:28;8.07;;;4.20;;
34571;SDS011;20808;48.974;8.452;2023-03-12T00:52:45;8.65;;;4.30;;
34571;SDS011;20808;48.974;8.452;2023-03-12T00:53:00;7.93;;;4.35;;
34571;SDS011;20808;48.974;8.452;2023-03-12T00:53:16;8.53;;;4.47;;
34571;SDS011;20808;48.974;8.452;2023-03-12T00:53:32;9.23;;;4.60;;
34571;SDS011;20808;48.974;8.452;2023-03-12T00:53:50;9.40;;;4.40;;
34571;SDS011;20808;48.974;8.452;2023-03-12T00:54:07;8.82;;;4.00;;
34571;SDS011;20808;48.974;8.452;2023-03-12T00:54:23;7.93;;;4.00;;
34571;SDS011;20808;48.974;8.452;2023-03-12T00:54:39;9.07;;;4.10;;
34571;SDS011;20808;48.974;8.452;2023-03-12T00:54:55;11.63;;;4.38;;
34571;SDS011;20808;48.974;8.452;2023-03-12T00:55:12;12.15;;;4.40;;
34571;SDS011;20808;48.974;8.452;2023-03-12T00:55:29;11.10;;;4.13;;
34571;SDS011;20808;48.974;8.452;2023-03-12T00:55:45;8.83;;;4.07;;
34571;SDS011;20808;48.974;8.452;2023-03-12T00:56:01;7.88;;;3.97;;
34571;SDS011;20808;48.974;8.452;2023-03-12T00:56:17;7.72;;;4.20;;
34571;SDS011;20808;48.974;8.452;2023-03-12T00:56:33;8.10;;;4.57;;
34571;SDS011;20808;48.974;8.452;2023-03-12T00:56:50;7.82;;;4.70;;
34571;SDS011;20808;48.974;8.452;2023-03-12T00:57:06;7.70;;;4.70;;
34571;SDS011;20808;48.974;8.452;2023-03-12T00:57:22;8.30;;;4.72;;
34571;SDS011;20808;48.974;8.452;2023-03-12T00:57:38;7.78;;;4.40;;
34571;SDS011;20808;48.974;8.452;2023-03-12T00:57:54;7.15;;;4.13;;
34571;SDS011;20808;48.974;8.452;2023-03-12T00:58:10;6.85;;;4.25;;
34571;SDS011;20808;48.974;8.452;2023-03-12T00:58:27;6.10;;;3.95;;
34571;SDS011;20808;48.974;8.452;2023-03-12T00:58:42;5.78;;;3.80;;
34571;SDS011;20808;48.974;8.452;2023-03-12T00:58:59;6.45;;;3.60;;
34571;SDS011;20808;48.974;8.452;2023-03-12T00:59:15;7.18;;;3.50;;
34571;SDS011;20808;48.974;8.452;2023-03-12T00:59:30;7.05;;;3.60;;
34571;SDS011;20808;48.974;8.452;2023-03-12T00:59:46;7.85;;;3.80;;
34571;SDS011;20808;48.974;8.452;2023-03-12T01:00:04;8.45;;;3.83;;
34571;SDS011;20808;48.974;8.452;2023-03-12T01:00:23;8.13;;;4.03;;
34571;SDS011;20808;48.974;8.452;2023-03-12T01:00:39;7.38;;;3.90;;
34571;SDS011;20808;48.974;8.452;2023-03-12T01:00:55;6.95;;;3.90;;
34571;SDS011;20808;48.974;8.452;2023-03-12T01:01:12;6.45;;;3.80;;
34571;SDS011;20808;48.974;8.452;2023-03-12T01:01:28;7.68;;;4.10;;
34571;SDS011;20808;48.974;8.452;2023-03-12T01:01:44;8.38;;;4.00;;
34571;SDS011;20808;48.974;8.452;2023-03-12T01:02:00;9.10;;;4.10;;
34571;SDS011;20808;48.974;8.452;2023-03-12T01:02:16;9.60;;;4.32;;
34571;SDS011;20808;48.974;8.452;2023-03-12T01:02:31;8.55;;;4.10;;
34571;SDS011;20808;48.974;8.452;2023-03-12T01:02:48;7.72;;;4.15;;
34571;SDS011;20808;48.974;8.452;2023-03-12T01:03:04;7.28;;;4.05;;
34571;SDS011;20808;48.974;8.452;2023-03-12T01:03:20;6.78;;;3.90;;
34571;SDS011;20808;48.974;8.452;2023-03-12T01:03:36;7.45;;;3.85;;
34571;SDS011;20808;48.974;8.452;2023-03-12T01:03:52;6.90;;;3.70;;
34571;SDS011;20808;48.974;8.452;2023-03-12T01:04:09;7.20;;;3.78;;
34571;SDS011;20808;48.974;8.452;2023-03-12T01:04:26;6.65;;;3.60;;
34571;SDS011;20808;48.974;8.452;2023-03-12T01:04:41;6.50;;;3.60;;
34571;SDS011;20808;48.974;8.452;2023-03-12T01:04:57;6.77;;;3.70;;
34571;SDS011;20808;48.974;8.452;2023-03-12T01:05:13;7.20;;;3.80;;
34571;SDS011;20808;48.974;8.452;2023-03-12T01:05:30;7.80;;;4.00;;
34571;SDS011;20808;48.974;8.452;2023-03-12T01:05:46;8.38;;;4.20;;
34571;SDS011;20808;48.974;8.452;2023-03-12T01:06:07;8.25;;;4.20;;
34571;SDS011;20808;48.974;8.452;2023-03-12T01:06:23;8.27;;;4.10;;
34571;SDS011;20808;48.974;8.452;2023-03-12T01:06:40;9.65;;;4.05;;
34571;SDS011;20808;48.974;8.452;2023-03-12T01:06:56;9.88;;;3.80;;
34571;SDS011;20808;48.974;8.452;2023-03-12T01:07:12;11.05;;;3.88;;
34571;SDS011;20808;48.974;8.452;2023-03-12T01:07:28;9.98;;;3.75;;
34571;SDS011;20808;48.974;8.452;2023-03-12T01:07:44;9.20;;;3.70;;
34571;SDS011;20808;48.974;8.452;2023-03-12T01:08:00;9.07;;;3.83;;
34571;SDS011;20808;48.974;8.452;2023-03-12T01:08:17;9.80;;;4.05;;
34571;SDS011;20808;48.974;8.452;2023-03-12T01:08:32;9.98;;;4.00;;
34571;SDS011;20808;48.974;8.452;2023-03-12T01:08:48;11.10;;;4.07;;
34571;SDS011;20808;48.974;8.452;2023-03-12T01:09:07;10.45;;;4.07;;
34571;SDS011;20808;48.974;8.452;2023-03-12T01:09:23;10.10;;;4.20;;
34571;SDS011;20808;48.974;8.452;2023-03-12T01:09:40;9.30;;;4.30;;
34571;SDS011;20808;48.974;8.452;2023-03-12T01:09:56;9.38;;;4.20;;
34571;SDS011;20808;48.974;8.452;2023-03-12T01:10:12;8.23;;;4.00;;
34571;SDS011;20808;48.974;8.452;2023-03-12T01:10:29;7.65;;;3.78;;
34571;SDS011;20808;48.974;8.452;2023-03-12T01:10:45;6.57;;;3.75;;
34571;SDS011;20808;48.974;8.452;2023-03-12T01:11:01;7.07;;;3.80;;
34571;SDS011;20808;48.974;8.452;2023-03-12T01:11:19;7.80;;;4.03;;
34571;SDS011;20808;48.974;8.452;2023-03-12T01:11:35;10.95;;;4.38;;
34571;SDS011;20808;48.974;8.452;2023-03-12T01:11:52;11.60;;;4.30;;
34571;SDS011;20808;48.974;8.452;2023-03-12T01:12:08;10.75;;;4.22;;
34571;SDS011;20808;48.974;8.452;2023-03-12T01:12:24;10.05;;;3.90;;
34571;SDS011;20808;48.974;8.452;2023-03-12T01:12:40;7.82;;;3.80;;
34571;SDS011;20808;48.974;8.452;2023-03-12T01:12:57;8.02;;;3.92;;
34571;SDS011;20808;48.974;8.452;2023-03-12T01:13:13;8.48;;;4.00;;
34571;SDS011;20808;48.974;8.452;2023-03-12T01:13:29;9.90;;;4.45;;
34571;SDS011;20808;48.974;8.452;2023-03-12T01:13:45;10.35;;;4.30;;
34571;SDS011;20808;48.974;8.452;2023-03-12T01:14:02;8.90;;;4.20;;
34571;SDS011;20808;48.974;8.452;2023-03-12T01:14:19;8.60;;;4.13;;
34571;SDS011;20808;48.974;8.452;2023-03-12T01:14:38;8.48;;;3.85;;
34571;SDS011;20808;48.974;8.452;2023-03-12T01:14:54;8.27;;;4.00;;
34571;SDS011;20808;48.974;8.452;2023-03-12T01:15:11;10.85;;;4.07;;
34571;SDS011;20808;48.974;8.452;2023-03-12T01:15:28;10.48;;;4.00;;
34571;SDS011;20808;48.974;8.452;2023-03-12T01:15:44;11.57;;;3.80;;
34571;SDS011;20808;48.974;8.452;2023-03-12T01:16:00;9.63;;;3.65;;
34571;SDS011;20808;48.974;8.452;2023-03-12T01:16:17;8.90;;;3.80;;
34571;SDS011;20808;48.974;8.452;2023-03-12T01:16:33;7.65;;;3.67;;
34571;SDS011;20808;48.974;8.452;2023-03-12T01:16:49;6.20;;;3.53;;
34571;SDS011;20808;48.974;8.452;2023-03-12T01:17:05;6.80;;;3.38;;
34571;SDS011;20808;48.974;8.452;2023-03-12T01:17:21;8.18;;;3.50;;
34571;SDS011;20808;48.974;8.452;2023-03-12T01:17:38;8.70;;;3.70;;
34571;SDS011;20808;48.974;8.452;2023-03-12T01:17:54;8.52;;;3.60;;
34571;SDS011;20808;48.974;8.452;2023-03-12T01:18:10;8.00;;;3.60;;
34571;SDS011;20808;48.974;8.452;2023-03-12T01:18:26;7.47;;;3.50;;
34571;SDS011;20808;48.974;8.452;2023-03-12T01:18:42;7.65;;;3.70;;
34571;SDS011;20808;48.974;8.452;2023-03-12T01:19:00;8.00;;;3.88;;
34571;SDS011;20808;48.974;8.452;2023-03-12T01:19:17;8.20;;;3.92;;
34571;SDS011;20808;48.974;8.452;2023-03-12T01:19:33;7.90;;;3.90;;
34571;SDS011;20808;48.974;8.452;2023-03-12T01:19:49;8.10;;;3.80;;
34571;SDS011;20808;48.974;8.452;2023-03-12T01:20:05;7.30;;;3.78;;
34571;SDS011;20808;48.974;8.452;2023-03-12T01:20:22;8.30;;;4.00;;
34571;SDS011;20808;48.974;8.452;2023-03-12T01:20:39;7.22;;;3.70;;
34571;SDS011;20808;48.974;8.452;2023-03-12T01:20:56;6.65;;;3.70;;
34571;SDS011;20808;48.974;8.452;2023-03-12T01:21:12;6.18;;;3.60;;
34571;SDS011;20808;48.974;8.452;2023-03-12T01:21:28;5.63;;;3.60;;
34571;SDS011;20808;48.974;8.452;2023-03-12T01:21:44;6.50;;;3.80;;
34571;SDS011;20808;48.974;8.452;2023-03-12T01:22:01;6.38;;;3.60;;
34571;SDS011;20808;48.974;8.452;2023-03-12T01:22:17;7.20;;;3.88;;
34571;SDS011;20808;48.974;8.452;2023-03-12T01:22:33;7.17;;;3.80;;
34571;SDS011;20808;48.974;8.452;2023-03-12T01:22:49;7.75;;;3.90;;
34571;SDS011;20808;48.974;8.452;2023-03-12T01:23:05;8.32;;;3.95;;
34571;SDS011;20808;48.974;8.452;2023-03-12T01:23:22;9.20;;;3.60;;
34571;SDS011;20808;48.974;8.452;2023-03-12T01:23:39;9.23;;;3.60;;
34571;SDS011;20808;48.974;8.452;2023-03-12T01:23:56;10.27;;;3.60;;
34571;SDS011;20808;48.974;8.452;2023-03-12T01:24:12;9.10;;;3.47;;
34571;SDS011;20808;48.974;8.452;2023-03-12T01:24:28;7.65;;;3.30;;
34571;SDS011;20808;48.974;8.452;2023-03-12T01:24:43;6.60;;;3.28;;
34571;SDS011;20808;48.974;8.452;2023-03-12T01:24:59;5.30;;;3.10;;
34571;SDS011;20808;48.974;8.452;2023-03-12T01:25:15;6.18;;;3.10;;
34571;SDS011;20808;48.974;8.452;2023-03-12T01:25:32;6.60;;;3.20;;
34571;SDS011;20808;48.974;8.452;2023-03-12T01:25:48;6.90;;;3.20;;
34571;SDS011;20808;48.974;8.452;2023-03-12T01:26:05;7.32;;;3.30;;
34571;SDS011;20808;48.974;8.452;2023-03-12T01:26:21;7.22;;;3.22;;
34571;SDS011;20808;48.974;8.452;2023-03-12T01:26:37;7.13;;;3.00;;
34571;SDS011;20808;48.974;8.452;2023-03-12T01:26:54;6.20;;;3.03;;
34571;SDS011;20808;48.974;8.452;2023-03-12T01:27:10;6.28;;;3.10;;
34571;SDS011;20808;48.974;8.452;2023-03-12T01:27:26;7.72;;;3.30;;
34571;SDS011;20808;48.974;8.452;2023-03-12T01:27:42;8.03;;;3.40;;
34571;SDS011;20808;48.974;8.452;2023-03-12T01:27:58;7.88;;;3.47;;
34571;SDS011;20808;48.974;8.452;2023-03-12T01:28:13;8.30;;;3.55;;
34571;SDS011;20808;48.974;8.452;2023-03-12T01:28:30;7.00;;;3.60;;
34571;SDS011;20808;48.974;8.452;2023-03-12T01:28:46;6.97;;;3.72;;
34571;SDS011;20808;48.974;8.452;2023-03-12T01:29:02;6.85;;;3.55;;
34571;SDS011;20808;48.974;8.452;2023-03-12T01:29:18;5.90;;;3.58;;
34571;SDS011;20808;48.974;8.452;2023-03-12T01:29:34;5.63;;;3.40;;
34571;SDS011;20808;48.974;8.452;2023-03-12T01:29:49;6.00;;;3.47;;
34571;SDS011;20808;48.974;8.452;2023-03-12T01:30:06;6.68;;;3.60;;
34571;SDS011;20808;48.974;8.452;2023-03-12T01:30:24;8.25;;;3.90;;
34571;SDS011;20808;48.974;8.452;2023-03-12T01:30:40;8.57;;;3.90;;
34571;SDS011;20808;48.974;8.452;2023-03-12T01:30:55;9.75;;;3.80;;
34571;SDS011;20808;48.974;8.452;2023-03-12T01:31:13;8.55;;;3.55;;
34571;SDS011;20808;48.974;8.452;2023-03-12T01:31:30;7.28;;;3.35;;
34571;SDS011;20808;48.974;8.452;2023-03-12T01:31:45;7.05;;;3.40;;
34571;SDS011;20808;48.974;8.452;2023-03-12T01:32:02;5.40;;;3.33;;
34571;SDS011;20808;48.974;8.452;2023-03-12T01:32:18;6.28;;;3.60;;
34571;SDS011;20808;48.974;8.452;2023-03-12T01:32:34;7.13;;;3.90;;
34571;SDS011;20808;48.974;8.452;2023-03-12T01:32:50;6.63;;;3.85;;
34571;SDS011;20808;48.974;8.452;2023-03-12T01:33:06;6.80;;;3.90;;
34571;SDS011;20808;48.974;8.452;2023-03-12T01:33:22;6.70;;;3.90;;
34571;SDS011;20808;48.974;8.452;2023-03-12T01:33:38;6.80;;;3.73;;
34571;SDS011;20808;48.974;8.452;2023-03-12T01:33:55;7.10;;;3.85;;
34571;SDS011;20808;48.974;8.452;2023-03-12T01:34:10;7.35;;;3.70;;
34571;SDS011;20808;48.974;8.452;2023-03-12T01:34:26;6.88;;;3.63;;
34571;SDS011;20808;48.974;8.452;2023-03-12T01:34:42;7.43;;;3.70;;
34571;SDS011;20808;48.974;8.452;2023-03-12T01:34:58;6.70;;;3.60;;
34571;SDS011;20808;48.974;8.452;2023-03-12T01:35:14;6.53;;;3.70;;
34571;SDS011;20808;48.974;8.452;2023-03-12T01:35:34;7.53;;;3.60;;
34571;SDS011;20808;48.974;8.452;2023-03-12T01:35:50;7.63;;;3.53;;
34571;SDS011;20808;48.974;8.452;2023-03-12T01:36:13;7.68;;;3.40;;
34571;SDS011;20808;48.974;8.452;2023-03-12T01:36:31;7.22;;;3.30;;
34571;SDS011;20808;48.974;8.452;2023-03-12T01:36:47;7.30;;;3.42;;
34571;SDS011;20808;48.974;8.452;2023-03-12T01:37:05;6.35;;;3.70;;
34571;SDS011;20808;48.974;8.452;2023-03-12T01:37:21;5.28;;;3.60;;
34571;SDS011;20808;48.974;8.452;2023-03-12T01:37:37;5.10;;;3.65;;
34571;SDS011;20808;48.974;8.452;2023-03-12T01:37:53;5.55;;;3.60;;
34571;SDS011;20808;48.974;8.452;2023-03-12T01:38:11;7.20;;;3.70;;
34571;SDS011;20808;48.974;8.452;2023-03-12T01:38:29;9.45;;;4.00;;
34571;SDS011;20808;48.974;8.452;2023-03-12T01:38:45;10.00;;;4.00;;
34571;SDS011;20808;48.974;8.452;2023-03-12T01:39:02;8.85;;;4.00;;
34571;SDS011;20808;48.974;8.452;2023-03-12T01:39:18;7.80;;;3.70;;
34571;SDS011;20808;48.974;8.452;2023-03-12T01:39:34;6.55;;;3.60;;
34571;SDS011;20808;48.974;8.452;2023-03-12T01:39:50;7.03;;;3.75;;
34571;SDS011;20808;48.974;8.452;2023-03-12T01:40:09;6.80;;;3.72;;